Time;durP1;ratioP1;P1;durP2;ratioP2;P2;SDS_P1;SDS_P2;PMS_P1;PMS_P2;Temp;Humidity;BMP_temperature;BMP_pressure;BME280_temperature;BME280_humidity;BME280_pressure;Samples;Min_cycle;Max_cycle;Signal;HPM_P1;HPM_P2
2021/05/03 00:01:00;;;;;;;5.37;1.90;;;7.30;99.90;;;;;;5017298;28;20237;-64
2021/05/03 00:03:26;;;;;;;3.20;1.00;;;7.30;99.90;;;;;;5026695;28;20178;-63
2021/05/03 00:05:56;;;;;;;4.20;1.77;;;7.20;99.90;;;;;;5036690;28;20202;-62
2021/05/03 00:08:25;;;;;;;4.75;1.90;;;7.20;99.90;;;;;;5036598;28;20194;-63
2021/05/03 00:10:51;;;;;;;4.68;1.60;;;7.10;99.90;;;;;;5036591;28;20333;-63
2021/05/03 00:13:17;;;;;;;7.95;1.67;;;7.10;99.90;;;;;;5036348;28;20182;-64
2021/05/03 00:15:43;;;;;;;4.05;1.60;;;7.20;99.90;;;;;;5036738;28;20181;-64
2021/05/03 00:18:09;;;;;;;4.10;1.53;;;7.10;99.90;;;;;;5030035;28;20202;-64
2021/05/03 00:20:35;;;;;;;4.27;1.60;;;7.20;99.90;;;;;;5025826;28;20664;-64
2021/05/03 00:23:01;;;;;;;7.27;1.43;;;7.20;99.90;;;;;;5031979;28;20998;-64
2021/05/03 00:25:26;;;;;;;3.30;0.73;;;7.20;99.90;;;;;;5015696;28;20190;-63
2021/05/03 00:27:52;;;;;;;5.23;1.63;;;7.10;99.90;;;;;;5019111;28;21019;-64
2021/05/03 00:30:18;;;;;;;3.63;1.40;;;7.00;99.90;;;;;;5036873;28;20269;-63
2021/05/03 00:32:44;;;;;;;4.67;1.60;;;7.00;99.90;;;;;;5035113;28;20429;-64
2021/05/03 00:35:11;;;;;;;5.00;1.60;;;7.00;99.90;;;;;;5015557;28;20932;-62
2021/05/03 00:37:37;;;;;;;3.28;1.00;;;7.00;99.90;;;;;;5016452;28;20217;-63
2021/05/03 00:40:05;;;;;;;3.80;1.40;;;6.90;99.90;;;;;;5036182;28;20205;-63
2021/05/03 00:42:31;;;;;;;3.83;1.30;;;6.80;99.90;;;;;;5036383;28;20464;-63
2021/05/03 00:44:56;;;;;;;4.20;1.40;;;6.80;99.90;;;;;;5017117;28;20178;-64
2021/05/03 00:47:24;;;;;;;3.93;1.17;;;6.80;99.90;;;;;;5024135;28;20251;-63
2021/05/03 00:49:50;;;;;;;3.50;0.90;;;6.70;99.90;;;;;;5035904;28;20209;-64
2021/05/03 00:52:15;;;;;;;5.73;1.43;;;6.60;99.90;;;;;;5036162;28;20170;-63
2021/05/03 00:54:41;;;;;;;4.37;1.80;;;6.60;99.90;;;;;;5021770;28;20649;-63
2021/05/03 00:57:08;;;;;;;3.97;1.20;;;6.60;99.90;;;;;;5035473;28;20269;-64
2021/05/03 00:59:35;;;;;;;4.05;0.95;;;6.60;99.90;;;;;;5020477;28;20202;-63
2021/05/03 01:02:00;;;;;;;3.38;0.63;;;6.60;99.90;;;;;;5016143;28;20206;-63
2021/05/03 01:04:26;;;;;;;3.60;1.40;;;6.60;99.90;;;;;;5030897;28;20174;-63
2021/05/03 01:06:52;;;;;;;7.00;2.13;;;6.60;99.90;;;;;;5035496;28;20177;-63
2021/05/03 01:09:18;;;;;;;6.30;1.60;;;6.70;99.90;;;;;;5021632;28;20705;-63
2021/05/03 01:11:44;;;;;;;5.30;1.60;;;6.70;99.90;;;;;;5016149;28;20176;-64
2021/05/03 01:14:10;;;;;;;4.35;1.45;;;6.70;99.90;;;;;;5028745;28;20191;-62
2021/05/03 01:16:36;;;;;;;5.00;1.53;;;6.70;99.90;;;;;;5035421;28;20174;-64
2021/05/03 01:19:02;;;;;;;4.77;1.50;;;6.80;99.90;;;;;;5022796;28;20987;-63
2021/05/03 01:21:29;;;;;;;6.05;1.40;;;6.90;99.90;;;;;;5015900;28;20188;-64
2021/05/03 01:23:55;;;;;;;5.32;1.92;;;6.90;99.90;;;;;;5026092;28;20174;-63
2021/05/03 01:26:21;;;;;;;5.03;1.65;;;6.90;99.90;;;;;;5035480;28;20163;-62
2021/05/03 01:28:47;;;;;;;3.60;1.13;;;6.90;99.90;;;;;;5026255;28;20736;-63
2021/05/03 01:31:13;;;;;;;4.70;1.42;;;6.80;99.90;;;;;;5015850;28;20253;-63
2021/05/03 01:33:39;;;;;;;4.65;1.63;;;6.70;99.90;;;;;;5021847;28;20179;-62
2021/05/03 01:36:05;;;;;;;4.23;1.13;;;6.70;99.90;;;;;;5015340;28;20551;-63
2021/05/03 01:38:31;;;;;;;3.97;1.07;;;6.70;99.90;;;;;;5021053;28;20697;-64
2021/05/03 01:40:56;;;;;;;4.17;1.80;;;6.60;99.90;;;;;;5035347;28;20886;-64
2021/05/03 01:43:25;;;;;;;7.47;2.47;;;6.60;99.90;;;;;;5024565;28;20265;-63
2021/05/03 01:45:52;;;;;;;4.10;1.55;;;6.70;99.90;;;;;;5026136;28;20436;-62
2021/05/03 01:48:25;;;;;;;4.40;1.50;;;6.60;99.90;;;;;;5034436;28;20198;-64
2021/05/03 01:50:52;;;;;;;4.80;1.60;;;6.60;99.90;;;;;;5035111;28;20209;-64
2021/05/03 01:53:18;;;;;;;5.03;1.88;;;6.60;99.90;;;;;;5026204;28;20189;-63
2021/05/03 01:55:55;;;;;;;6.40;1.92;;;6.60;99.90;;;;;;5015062;28;20265;-64
2021/05/03 01:58:22;;;;;;;4.97;2.08;;;6.50;99.90;;;;;;5024604;28;20228;-63
2021/05/03 02:00:48;;;;;;;4.35;1.75;;;6.50;99.90;;;;;;5034917;28;20186;-64
2021/05/03 02:03:19;;;;;;;4.83;1.43;;;6.40;99.90;;;;;;5034363;28;20174;-63
2021/05/03 02:05:45;;;;;;;4.53;2.08;;;6.30;99.90;;;;;;5031151;28;20553;-64
2021/05/03 02:08:11;;;;;;;4.00;1.33;;;6.30;99.90;;;;;;5028079;28;20194;-63
2021/05/03 02:10:37;;;;;;;5.15;1.88;;;6.30;99.90;;;;;;5033003;28;20261;-64
2021/05/03 02:13:03;;;;;;;4.60;1.60;;;6.30;99.90;;;;;;5014929;28;20174;-64
2021/05/03 02:15:30;;;;;;;4.70;1.60;;;6.40;99.90;;;;;;5018975;28;20186;-64
2021/05/03 02:17:57;;;;;;;4.63;1.30;;;6.30;99.90;;;;;;5033928;28;20268;-63
2021/05/03 02:20:22;;;;;;;4.20;1.05;;;6.20;99.90;;;;;;5034554;28;20251;-64
2021/05/03 02:22:49;;;;;;;4.87;1.60;;;6.20;99.90;;;;;;5015209;28;20175;-63
2021/05/03 02:25:14;;;;;;;4.50;1.35;;;6.10;99.90;;;;;;5014751;28;20163;-63
2021/05/03 02:27:41;;;;;;;5.60;1.40;;;6.00;99.90;;;;;;5031273;28;20593;-63
2021/05/03 02:30:08;;;;;;;4.32;0.77;;;6.00;99.90;;;;;;5033851;28;20178;-64
2021/05/03 02:32:37;;;;;;;5.85;2.17;;;5.90;99.90;;;;;;5029577;28;20539;-63
2021/05/03 02:35:04;;;;;;;4.57;1.45;;;5.80;99.90;;;;;;5034249;28;20257;-63
2021/05/03 02:37:30;;;;;;;4.40;1.70;;;5.70;99.90;;;;;;5033209;28;20182;-62
2021/05/03 02:39:56;;;;;;;5.60;1.17;;;5.70;99.90;;;;;;5026327;28;20281;-64
2021/05/03 02:42:21;;;;;;;6.30;1.60;;;5.70;99.90;;;;;;5014522;28;20217;-63
2021/05/03 02:44:47;;;;;;;4.70;1.27;;;5.60;99.90;;;;;;5033804;28;20253;-63
2021/05/03 02:47:13;;;;;;;4.10;0.90;;;5.50;99.90;;;;;;5033536;28;20162;-62
2021/05/03 02:49:38;;;;;;;4.00;0.80;;;5.50;99.90;;;;;;5015131;28;20198;-64
2021/05/03 02:52:04;;;;;;;5.33;1.17;;;5.50;99.90;;;;;;5014141;28;20182;-65
2021/05/03 02:54:30;;;;;;;4.70;1.23;;;5.50;99.90;;;;;;5015191;28;20174;-63
2021/05/03 02:56:57;;;;;;;5.30;1.05;;;5.40;99.90;;;;;;5013686;28;20183;-63
2021/05/03 02:59:22;;;;;;;5.93;3.10;;;5.40;99.90;;;;;;5029165;28;20205;-63
2021/05/03 03:01:48;;;;;;;4.40;1.30;;;5.30;99.90;;;;;;5033668;28;20251;-62
2021/05/03 03:04:14;;;;;;;6.53;2.00;;;5.30;99.90;;;;;;5032842;28;20587;-63
2021/05/03 03:06:40;;;;;;;9.73;1.63;;;5.20;99.90;;;;;;5033400;28;20582;-64
2021/05/03 03:09:06;;;;;;;7.90;2.10;;;5.20;99.90;;;;;;5020606;28;20542;-63
2021/05/03 03:11:32;;;;;;;5.93;2.00;;;5.10;99.90;;;;;;5013804;28;20273;-64
2021/05/03 03:13:58;;;;;;;6.72;3.10;;;5.10;99.90;;;;;;5024430;28;20600;-64
2021/05/03 03:16:26;;;;;;;7.07;2.55;;;5.20;99.90;;;;;;5033298;28;20536;-63
2021/05/03 03:18:55;;;;;;;7.50;2.60;;;5.10;99.90;;;;;;5022778;28;20206;-63
2021/05/03 03:21:22;;;;;;;7.70;2.03;;;5.10;99.90;;;;;;5013149;28;20214;-63
2021/05/03 03:23:47;;;;;;;6.22;1.45;;;5.00;99.90;;;;;;5017563;28;20182;-62
2021/05/03 03:26:13;;;;;;;7.70;1.10;;;4.90;99.90;;;;;;5013459;28;20167;-63
2021/05/03 03:28:38;;;;;;;5.60;1.60;;;4.80;99.90;;;;;;5020896;28;20198;-63
2021/05/03 03:31:04;;;;;;;4.53;1.10;;;4.80;99.90;;;;;;5033135;28;20185;-64
2021/05/03 03:33:30;;;;;;;4.73;1.37;;;4.70;99.90;;;;;;5032761;28;20169;-62
2021/05/03 03:35:56;;;;;;;4.50;1.23;;;4.70;99.90;;;;;;5032567;28;20170;-64
2021/05/03 03:38:22;;;;;;;4.45;0.70;;;4.60;99.90;;;;;;5027871;28;20245;-63
2021/05/03 03:40:47;;;;;;;4.97;1.37;;;4.60;99.90;;;;;;5013671;28;20669;-63
2021/05/03 03:43:13;;;;;;;5.30;1.60;;;4.60;99.90;;;;;;5028698;28;20178;-63
2021/05/03 03:45:39;;;;;;;4.70;1.37;;;4.70;99.90;;;;;;5032916;28;20273;-64
2021/05/03 03:48:06;;;;;;;5.43;2.07;;;4.70;99.90;;;;;;5018941;28;20198;-64
2021/05/03 03:50:33;;;;;;;7.57;2.78;;;4.70;99.90;;;;;;5013593;28;20200;-63
2021/05/03 03:52:59;;;;;;;4.50;1.10;;;4.70;99.90;;;;;;5025486;28;20174;-63
2021/05/03 03:55:26;;;;;;;6.47;1.30;;;4.70;99.90;;;;;;5033322;28;20182;-63
2021/05/03 03:57:51;;;;;;;5.03;1.30;;;4.70;99.90;;;;;;5020413;28;20182;-63
2021/05/03 04:00:18;;;;;;;4.70;1.23;;;4.70;99.90;;;;;;5029340;28;20208;-62
2021/05/03 04:02:46;;;;;;;9.88;1.50;;;4.70;99.90;;;;;;5023012;28;20194;-63
2021/05/03 04:07:51;;;;;;;5.82;1.70;;;4.70;99.90;;;;;;5021998;28;20174;-63
2021/05/03 04:10:45;;;;;;;4.97;1.50;;;4.70;99.90;;;;;;5033137;28;20162;-65
2021/05/03 04:21:13;;;;;;;6.35;3.00;;;4.70;99.90;;;;;;5025424;28;20691;-63
2021/05/03 04:23:56;;;;;;;5.65;1.55;;;4.70;99.90;;;;;;5016898;28;20179;-61
2021/05/03 04:26:24;;;;;;;5.72;1.58;;;4.80;99.90;;;;;;5012919;28;20232;-63
2021/05/03 04:28:54;;;;;;;4.50;1.05;;;4.80;99.90;;;;;;5029450;28;20249;-63
2021/05/03 04:31:22;;;;;;;4.68;1.55;;;4.90;99.90;;;;;;5033812;28;20181;-62
2021/05/03 04:33:48;;;;;;;6.28;1.92;;;4.90;99.90;;;;;;5020609;28;20183;-65
2021/05/03 04:36:14;;;;;;;6.82;2.22;;;5.00;99.90;;;;;;5032529;28;20186;-62
2021/05/03 04:38:39;;;;;;;5.33;1.60;;;5.10;99.90;;;;;;5035713;28;20209;-64
2021/05/03 04:41:06;;;;;;;6.13;1.80;;;5.20;99.90;;;;;;5036513;28;20198;-65
2021/05/03 04:43:32;;;;;;;6.32;2.80;;;5.30;99.90;;;;;;5027360;28;20240;-64
2021/05/03 04:45:58;;;;;;;5.25;1.75;;;5.50;99.90;;;;;;5035764;28;20178;-63
2021/05/03 04:48:24;;;;;;;5.17;1.50;;;5.60;99.90;;;;;;5035124;28;20576;-62
2021/05/03 04:50:49;;;;;;;5.40;2.37;;;5.70;99.90;;;;;;5051600;28;20417;-63
2021/05/03 04:53:15;;;;;;;5.40;1.33;;;5.80;99.90;;;;;;5022741;28;20182;-63
2021/05/03 04:55:40;;;;;;;5.20;1.43;;;6.00;99.90;;;;;;5016271;28;20170;-63
2021/05/03 04:58:06;;;;;;;7.10;2.00;;;6.20;99.90;;;;;;5027165;28;20196;-62
2021/05/03 05:00:32;;;;;;;5.30;2.37;;;6.50;99.90;;;;;;5036077;28;20679;-65
2021/05/03 05:02:57;;;;;;;6.03;1.60;;;6.70;99.90;;;;;;5026093;28;20699;-63
2021/05/03 05:05:24;;;;;;;5.67;1.67;;;6.90;99.90;;;;;;5016144;28;20265;-63
2021/05/03 05:07:50;;;;;;;6.20;1.98;;;7.00;99.90;;;;;;5023885;28;20636;-62
2021/05/03 05:10:16;;;;;;;7.50;2.13;;;7.00;99.90;;;;;;5035881;28;20188;-63
2021/05/03 05:12:41;;;;;;;5.20;1.67;;;6.90;99.90;;;;;;5032490;28;20547;-64
2021/05/03 05:15:07;;;;;;;5.90;1.63;;;6.90;99.90;;;;;;5036131;28;20854;-63
2021/05/03 05:17:35;;;;;;;5.10;1.92;;;6.70;99.90;;;;;;5029406;28;20595;-64
2021/05/03 05:20:01;;;;;;;5.85;1.85;;;6.60;99.90;;;;;;5015791;28;20665;-64
2021/05/03 05:22:27;;;;;;;4.88;1.17;;;6.70;99.90;;;;;;5025300;28;20183;-64
2021/05/03 05:24:53;;;;;;;5.80;1.87;;;6.70;99.90;;;;;;5014771;28;20178;-63
2021/05/03 05:27:19;;;;;;;5.00;1.20;;;7.00;99.90;;;;;;5017787;28;20262;-64
2021/05/03 05:29:44;;;;;;;7.10;2.13;;;7.10;99.90;;;;;;5035439;28;20589;-64
2021/05/03 05:32:10;;;;;;;6.07;1.37;;;7.10;99.90;;;;;;5034892;28;20169;-64
2021/05/03 05:34:36;;;;;;;12.00;2.30;;;7.10;99.90;;;;;;5015758;28;20638;-64
2021/05/03 05:37:02;;;;;;;5.47;2.43;;;7.30;99.90;;;;;;5029333;28;20182;-68
2021/05/03 05:39:28;;;;;;;6.80;3.40;;;7.50;99.90;;;;;;5015467;28;20479;-67
2021/05/03 05:41:53;;;;;;;9.60;1.75;;;7.70;99.90;;;;;;5014358;28;20657;-64
2021/05/03 05:44:19;;;;;;;6.07;2.23;;;7.70;99.90;;;;;;5019902;28;20190;-69
2021/05/03 05:46:47;;;;;;;7.67;3.37;;;7.80;99.90;;;;;;5032828;28;20180;-68
2021/05/03 05:49:13;;;;;;;5.45;2.10;;;8.00;99.90;;;;;;5033370;28;20222;-68
2021/05/03 05:51:39;;;;;;;5.83;1.97;;;8.40;99.90;;;;;;5034702;28;20194;-63
2021/05/03 05:54:06;;;;;;;6.30;2.57;;;8.70;99.90;;;;;;5033972;28;20408;-65
2021/05/03 05:56:31;;;;;;;6.30;2.60;;;8.90;99.90;;;;;;5028271;28;20422;-66
2021/05/03 05:58:57;;;;;;;6.73;2.70;;;9.00;99.90;;;;;;5024873;28;20201;-67
2021/05/03 06:01:24;;;;;;;5.70;1.97;;;9.10;99.90;;;;;;5034162;28;20198;-69
2021/05/03 06:03:50;;;;;;;6.88;2.33;;;8.90;99.90;;;;;;5019657;28;20575;-73
2021/05/03 06:06:16;;;;;;;10.27;3.83;;;9.00;99.90;;;;;;5023238;28;20174;-67
2021/05/03 06:08:41;;;;;;;8.93;2.50;;;9.10;99.90;;;;;;5022854;28;20191;-65
2021/05/03 06:11:07;;;;;;;5.37;2.17;;;9.20;99.90;;;;;;5031012;28;20452;-65
2021/05/03 06:13:33;;;;;;;6.23;2.97;;;9.40;99.90;;;;;;5031291;28;20762;-67
2021/05/03 06:15:58;;;;;;;7.23;3.27;;;9.60;99.90;;;;;;5031630;28;20440;-67
2021/05/03 06:18:24;;;;;;;6.93;2.80;;;9.80;99.90;;;;;;5023040;28;20209;-69
2021/05/03 06:20:50;;;;;;;8.17;3.60;;;9.80;99.90;;;;;;5022509;28;20251;-67
2021/05/03 06:23:16;;;;;;;8.10;3.10;;;9.80;99.90;;;;;;5034436;28;20532;-65
2021/05/03 06:25:41;;;;;;;6.77;3.50;;;9.80;99.90;;;;;;5032492;28;20571;-68
2021/05/03 06:28:08;;;;;;;6.00;3.80;;;9.80;99.90;;;;;;5026755;28;20195;-68
2021/05/03 06:30:34;;;;;;;8.98;3.67;;;9.90;99.90;;;;;;5027603;28;20197;-64
2021/05/03 06:33:00;;;;;;;11.40;3.22;;;10.00;99.90;;;;;;5014372;28;20175;-67
2021/05/03 06:35:25;;;;;;;6.57;2.60;;;10.20;99.90;;;;;;5021794;28;20243;-67
2021/05/03 06:37:52;;;;;;;8.80;4.20;;;10.50;99.90;;;;;;5033832;28;20529;-69
2021/05/03 06:40:19;;;;;;;5.00;2.10;;;10.70;99.90;;;;;;5025905;28;20283;-65
2021/05/03 06:42:47;;;;;;;6.45;3.28;;;10.70;99.90;;;;;;5023801;28;20166;-65
2021/05/03 06:45:13;;;;;;;6.85;3.05;;;10.80;99.90;;;;;;5048730;28;20201;-68
2021/05/03 06:47:39;;;;;;;9.85;3.72;;;10.90;99.90;;;;;;5040262;28;20182;-66
2021/05/03 06:50:07;;;;;;;6.43;2.40;;;11.00;99.90;;;;;;5045914;28;20186;-72
2021/05/03 06:52:32;;;;;;;6.97;3.10;;;11.40;99.90;;;;;;5044411;28;20553;-63
2021/05/03 06:54:58;;;;;;;5.70;2.53;;;11.90;99.90;;;;;;5053760;28;20178;-63
2021/05/03 06:57:24;;;;;;;7.90;3.30;;;12.30;99.10;;;;;;5042920;28;20176;-63
2021/05/03 06:59:49;;;;;;;5.43;2.80;;;12.40;96.80;;;;;;5033940;28;20198;-64
2021/05/03 07:02:15;;;;;;;7.70;3.30;;;12.40;96.90;;;;;;5033319;28;20207;-65
2021/05/03 07:04:41;;;;;;;7.57;3.17;;;12.30;96.30;;;;;;5030422;28;20633;-66
2021/05/03 07:07:07;;;;;;;6.53;3.53;;;12.60;96.30;;;;;;5032344;28;20472;-62
2021/05/03 07:09:34;;;;;;;7.80;2.83;;;12.60;95.50;;;;;;5032793;28;20485;-63
2021/05/03 07:12:09;;;;;;;5.90;2.93;;;12.60;95.80;;;;;;5028444;28;20607;-64
2021/05/03 07:14:36;;;;;;;8.80;4.00;;;12.90;94.80;;;;;;5032772;28;20430;-65
2021/05/03 07:17:04;;;;;;;7.13;2.73;;;12.90;93.90;;;;;;5030267;28;20427;-67
2021/05/03 07:19:34;;;;;;;6.20;2.93;;;13.10;94.10;;;;;;5034794;28;20478;-65
2021/05/03 07:22:08;;;;;;;5.23;2.73;;;13.50;93.10;;;;;;5029016;28;20522;-69
2021/05/03 07:24:36;;;;;;;5.50;3.00;;;13.60;92.30;;;;;;5029483;28;20848;-64
2021/05/03 07:27:02;;;;;;;7.50;3.67;;;13.70;91.80;;;;;;5031399;28;20548;-65
2021/05/03 07:29:27;;;;;;;7.00;3.47;;;14.10;91.70;;;;;;5018101;28;20443;-64
2021/05/03 07:31:53;;;;;;;6.70;3.13;;;14.80;91.50;;;;;;5015165;28;20430;-65
2021/05/03 07:34:19;;;;;;;5.33;3.13;;;15.50;89.30;;;;;;5022321;28;20529;-66
2021/05/03 07:36:45;;;;;;;7.93;3.90;;;16.30;89.00;;;;;;5021075;28;20229;-65
2021/05/03 07:39:10;;;;;;;6.43;3.20;;;16.60;84.40;;;;;;5022247;28;20692;-68
2021/05/03 07:41:40;;;;;;;5.40;3.23;;;17.20;82.60;;;;;;5023281;28;20233;-64
2021/05/03 07:44:05;;;;;;;5.43;3.20;;;18.10;81.80;;;;;;5016014;28;20476;-66
2021/05/03 07:46:31;;;;;;;4.80;2.80;;;19.30;75.10;;;;;;5018105;28;20430;-66
2021/05/03 07:48:58;;;;;;;5.20;3.20;;;19.70;74.00;;;;;;5021993;28;20195;-65
2021/05/03 07:51:25;;;;;;;4.60;2.70;;;20.10;69.60;;;;;;5031111;28;20223;-66
2021/05/03 07:53:51;;;;;;;6.20;3.60;;;20.60;67.80;;;;;;5022174;28;20411;-65
2021/05/03 07:56:17;;;;;;;5.37;3.20;;;20.90;65.90;;;;;;5024798;28;20460;-65
2021/05/03 07:58:44;;;;;;;4.60;3.10;;;21.30;64.20;;;;;;5022467;28;20491;-68
2021/05/03 08:01:11;;;;;;;6.17;3.13;;;22.10;61.00;;;;;;5025138;28;20494;-68
2021/05/03 08:03:39;;;;;;;7.13;3.30;;;22.00;58.10;;;;;;5031917;28;20826;-64
2021/05/03 08:06:07;;;;;;;4.37;2.80;;;22.40;58.20;;;;;;5033951;28;20792;-64
2021/05/03 08:08:33;;;;;;;4.60;3.03;;;22.80;57.60;;;;;;5050516;28;20407;-65
2021/05/03 08:10:59;;;;;;;4.80;2.87;;;23.20;55.80;;;;;;5052142;28;20410;-64
2021/05/03 08:13:27;;;;;;;4.60;2.77;;;23.80;56.60;;;;;;5036068;28;20186;-64
2021/05/03 08:15:55;;;;;;;4.87;3.87;;;24.30;55.50;;;;;;5036294;28;20514;-64
2021/05/03 08:18:21;;;;;;;5.17;3.90;;;24.30;53.00;;;;;;5036408;28;20416;-65
2021/05/03 08:20:46;;;;;;;4.53;3.40;;;24.40;54.20;;;;;;5036243;28;20981;-64
2021/05/03 08:23:18;;;;;;;5.20;3.73;;;24.40;52.70;;;;;;5035797;28;20187;-65
2021/05/03 08:25:44;;;;;;;5.10;3.30;;;25.10;53.60;;;;;;5035397;28;20174;-63
2021/05/03 08:28:09;;;;;;;4.30;3.17;;;25.80;50.40;;;;;;5029340;28;20513;-63
2021/05/03 08:30:35;;;;;;;4.53;3.23;;;25.60;48.70;;;;;;5056578;28;20178;-64
2021/05/03 08:33:01;;;;;;;5.10;3.33;;;24.60;50.00;;;;;;5035709;28;20257;-65
2021/05/03 08:35:26;;;;;;;4.97;3.70;;;23.30;49.70;;;;;;5035951;28;20178;-64
2021/05/03 08:37:52;;;;;;;4.53;3.27;;;22.10;51.50;;;;;;5028702;28;20182;-64
2021/05/03 08:40:18;;;;;;;4.43;3.37;;;20.90;54.40;;;;;;5034852;28;20202;-65
2021/05/03 08:42:44;;;;;;;4.90;3.43;;;20.30;54.90;;;;;;5035974;28;20170;-65
2021/05/03 08:45:10;;;;;;;5.27;2.77;;;19.60;55.90;;;;;;5028333;28;20551;-63
2021/05/03 08:47:39;;;;;;;4.93;2.80;;;18.80;56.40;;;;;;5028188;28;20563;-64
2021/05/03 08:52:54;;;;;;;5.40;3.40;;;17.00;58.80;;;;;;5039080;28;20396;-64
2021/05/03 08:55:20;;;;;;;5.50;3.20;;;16.70;61.00;;;;;;5038226;28;20416;-63
2021/05/03 08:57:45;;;;;;;6.87;3.10;;;17.20;61.60;;;;;;5034739;28;20431;-64
2021/05/03 09:00:16;;;;;;;4.73;2.93;;;17.80;60.00;;;;;;5032908;28;20200;-62
2021/05/03 09:02:46;;;;;;;3.70;2.33;;;18.70;60.50;;;;;;5036025;28;20631;-65
2021/05/03 09:05:13;;;;;;;5.80;3.00;;;19.10;58.10;;;;;;5034400;28;20734;-64
2021/05/03 09:07:50;;;;;;;3.80;2.63;;;19.40;57.50;;;;;;5053881;28;20435;-63
2021/05/03 09:10:18;;;;;;;4.30;2.77;;;19.20;56.70;;;;;;5053384;28;20979;-65
2021/05/03 09:12:44;;;;;;;4.93;3.00;;;19.00;56.90;;;;;;5035653;28;20471;-64
2021/05/03 09:15:10;;;;;;;4.30;2.83;;;19.00;57.10;;;;;;5035087;28;20475;-62
2021/05/03 09:17:44;;;;;;;4.40;2.93;;;18.90;57.10;;;;;;5035492;28;20379;-64
2021/05/03 09:20:14;;;;;;;6.47;3.40;;;19.20;58.60;;;;;;5036524;28;20406;-63
2021/05/03 09:22:45;;;;;;;4.47;2.50;;;20.10;57.40;;;;;;5035514;28;20401;-64
2021/05/03 09:25:18;;;;;;;5.00;2.77;;;21.30;56.40;;;;;;5034892;28;20783;-64
2021/05/03 09:27:47;;;;;;;3.73;2.27;;;22.50;54.20;;;;;;5034711;28;20405;-65
2021/05/03 09:30:36;;;;;;;4.67;2.60;;;22.80;51.90;;;;;;5051188;28;20394;-65
2021/05/03 09:33:41;;;;;;;3.33;2.30;;;22.30;53.00;;;;;;5055211;28;20439;-63
2021/05/03 09:36:09;;;;;;;4.30;2.83;;;23.10;53.00;;;;;;5042016;28;20443;-65
2021/05/03 09:38:46;;;;;;;3.73;2.37;;;24.00;51.90;;;;;;5054581;28;20441;-65
2021/05/03 09:41:16;;;;;;;3.30;2.00;;;24.30;49.90;;;;;;5034073;28;20509;-63
2021/05/03 09:44:05;;;;;;;5.87;3.00;;;23.90;50.70;;;;;;5031430;28;20383;-63
2021/05/03 09:46:36;;;;;;;4.43;3.30;;;23.40;50.20;;;;;;5034571;28;20376;-66
2021/05/03 09:49:16;;;;;;;3.60;2.47;;;22.20;50.60;;;;;;5034921;28;20433;-64
2021/05/03 09:51:52;;;;;;;3.70;2.33;;;20.90;50.90;;;;;;5034567;28;20470;-66
2021/05/03 09:54:28;;;;;;;4.50;2.60;;;20.10;52.10;;;;;;5034833;28;20412;-64
2021/05/03 09:57:06;;;;;;;4.10;2.67;;;19.80;54.30;;;;;;5034352;28;20435;-64
2021/05/03 09:59:52;;;;;;;4.33;2.83;;;19.70;54.80;;;;;;5035328;28;20406;-64
2021/05/03 10:02:21;;;;;;;4.07;2.23;;;21.00;56.80;;;;;;5054443;28;20473;-65
2021/05/03 10:05:04;;;;;;;4.10;2.80;;;22.20;53.50;;;;;;5038381;28;20495;-64
2021/05/03 10:07:31;;;;;;;4.17;2.50;;;22.80;52.00;;;;;;5039778;28;20441;-65
2021/05/03 10:10:11;;;;;;;3.90;2.80;;;22.80;49.60;;;;;;5054577;28;20411;-67
2021/05/03 10:12:38;;;;;;;3.70;2.37;;;22.80;50.30;;;;;;5054366;28;20379;-67
2021/05/03 10:15:07;;;;;;;4.67;2.07;;;22.30;50.80;;;;;;5054295;28;20491;-67
2021/05/03 10:17:35;;;;;;;3.77;2.17;;;21.40;49.10;;;;;;5053891;28;20411;-64
2021/05/03 10:20:01;;;;;;;3.77;2.10;;;20.20;49.40;;;;;;5034304;28;20466;-65
2021/05/03 10:22:29;;;;;;;3.90;1.93;;;19.30;49.60;;;;;;5034326;28;20433;-66
2021/05/03 10:25:01;;;;;;;3.20;1.90;;;18.40;52.90;;;;;;5048286;28;20921;-67
2021/05/03 10:27:27;;;;;;;4.20;2.20;;;17.70;53.50;;;;;;5041818;28;20488;-62
2021/05/03 10:30:10;;;;;;;4.60;2.10;;;17.40;54.80;;;;;;5037238;28;20444;-62
2021/05/03 10:32:36;;;;;;;3.20;1.73;;;16.90;54.90;;;;;;5034148;28;20629;-64
2021/05/03 10:35:05;;;;;;;4.50;2.50;;;16.40;55.00;;;;;;5033722;28;20512;-63
2021/05/03 10:37:36;;;;;;;3.57;2.10;;;16.20;55.10;;;;;;5033618;28;20492;-63
2021/05/03 10:40:26;;;;;;;4.30;2.90;;;16.00;57.70;;;;;;5032571;28;20418;-65
2021/05/03 10:43:11;;;;;;;8.50;2.87;;;16.20;59.20;;;;;;5028453;28;20500;-66
2021/05/03 10:45:49;;;;;;;5.47;3.03;;;16.40;59.40;;;;;;5033888;28;20404;-67
2021/05/03 10:48:48;;;;;;;5.03;3.00;;;16.40;59.40;;;;;;5032467;28;20954;-64
2021/05/03 10:51:43;;;;;;;3.50;1.80;;;16.10;56.90;;;;;;5026888;28;20439;-63
2021/05/03 10:56:51;;;;;;;4.13;2.30;;;15.50;57.80;;;;;;5033247;28;20417;-64
2021/05/03 10:59:17;;;;;;;4.50;2.60;;;15.50;57.90;;;;;;5033404;28;20456;-63
2021/05/03 11:01:52;;;;;;;4.10;2.53;;;15.40;60.80;;;;;;5033467;28;20465;-65
2021/05/03 11:04:38;;;;;;;4.60;2.90;;;15.40;59.00;;;;;;5033483;28;20404;-65
2021/05/03 11:07:07;;;;;;;3.40;1.90;;;15.40;59.20;;;;;;5048174;28;20436;-66
2021/05/03 11:09:41;;;;;;;11.60;2.20;;;15.50;59.50;;;;;;5048627;28;20428;-67
2021/05/03 11:12:27;;;;;;;4.17;2.43;;;15.60;58.30;;;;;;5041618;28;20963;-65
2021/05/03 11:15:07;;;;;;;9.33;2.83;;;15.70;56.00;;;;;;5011742;28;20423;-65
2021/05/03 11:17:33;;;;;;;4.63;2.17;;;15.70;56.80;;;;;;5001724;28;20437;-65
2021/05/03 11:22:47;;;;;;;4.60;2.10;;;15.70;56.00;;;;;;4990914;28;20200;-66
2021/05/03 11:25:25;;;;;;;5.23;2.83;;;15.60;55.80;;;;;;4991841;28;20226;-66
2021/05/03 11:31:03;;;;;;;3.80;2.27;;;15.40;56.00;;;;;;4972368;28;20442;-65
2021/05/03 11:33:42;;;;;;;4.63;2.40;;;15.50;57.10;;;;;;4979939;28;20577;-65
2021/05/03 11:36:13;;;;;;;5.47;2.17;;;15.60;54.40;;;;;;4991535;28;20430;-65
2021/05/03 11:47:04;;;;;;;3.33;1.90;;;15.90;54.30;;;;;;4967641;28;20424;-61
2021/05/03 11:49:44;;;;;;;5.47;2.60;;;16.00;55.10;;;;;;4974639;28;20457;-64
2021/05/03 11:52:10;;;;;;;4.40;2.90;;;16.00;54.60;;;;;;4964243;28;20507;-66
2021/05/03 11:54:41;;;;;;;3.40;1.97;;;16.00;55.20;;;;;;4985887;28;20568;-64
2021/05/03 11:57:16;;;;;;;3.33;1.80;;;16.00;53.80;;;;;;5005881;28;20431;-65
2021/05/03 11:59:42;;;;;;;3.80;2.03;;;15.90;54.50;;;;;;4991645;28;20444;-65
2021/05/03 12:02:13;;;;;;;4.47;2.20;;;15.90;55.10;;;;;;5020546;28;20628;-65
2021/05/03 12:04:49;;;;;;;3.10;1.37;;;15.90;53.70;;;;;;5032633;28;20776;-64
2021/05/03 12:07:14;;;;;;;3.30;1.63;;;15.70;53.20;;;;;;5023699;28;20420;-64
2021/05/03 12:09:42;;;;;;;3.73;1.73;;;15.70;52.90;;;;;;5024125;28;20437;-64
2021/05/03 12:12:08;;;;;;;4.17;2.00;;;15.80;53.20;;;;;;5014743;28;20186;-67
2021/05/03 12:14:42;;;;;;;3.77;1.73;;;15.90;54.10;;;;;;5038632;28;20408;-63
2021/05/03 12:17:23;;;;;;;3.53;2.37;;;15.90;53.10;;;;;;5045034;28;20502;-64
2021/05/03 12:19:54;;;;;;;3.93;2.00;;;15.80;53.20;;;;;;5032561;28;20425;-64
2021/05/03 12:22:21;;;;;;;3.30;1.40;;;15.70;53.20;;;;;;5032369;28;20466;-66
2021/05/03 12:24:48;;;;;;;4.10;2.00;;;15.70;53.60;;;;;;5032758;28;20397;-64
2021/05/03 12:27:15;;;;;;;3.50;1.90;;;16.00;52.00;;;;;;5029365;28;20422;-63
2021/05/03 12:29:43;;;;;;;4.00;1.80;;;16.20;53.90;;;;;;5032621;28;20425;-65
2021/05/03 12:32:20;;;;;;;5.20;1.90;;;16.20;51.70;;;;;;5033042;28;20401;-63
2021/05/03 12:34:49;;;;;;;3.10;1.93;;;16.30;52.10;;;;;;5048090;28;20434;-62
2021/05/03 12:37:18;;;;;;;3.33;1.80;;;16.30;54.20;;;;;;5032649;28;20409;-65
2021/05/03 12:40:06;;;;;;;3.90;1.93;;;16.30;52.30;;;;;;5032772;28;20519;-63
2021/05/03 12:42:34;;;;;;;4.00;1.50;;;16.30;54.20;;;;;;5032480;28;20447;-65
2021/05/03 12:45:12;;;;;;;2.80;1.20;;;16.20;54.80;;;;;;5032878;28;20751;-62
2021/05/03 12:50:28;;;;;;;3.23;1.40;;;16.40;54.60;;;;;;5032408;28;20433;-64
2021/05/03 12:58:17;;;;;;;2.77;1.33;;;16.60;50.40;;;;;;5035693;28;20766;-63
2021/05/03 13:01:03;;;;;;;3.20;1.60;;;16.60;50.80;;;;;;5035661;28;20837;-65
2021/05/03 13:04:00;;;;;;;6.07;1.67;;;16.40;50.40;;;;;;5036181;28;20772;-64
2021/05/03 13:09:19;;;;;;;2.77;1.33;;;16.20;51.80;;;;;;5035930;28;20449;-64
2021/05/03 13:29:12;;;;;;;2.97;1.47;;;16.60;51.50;;;;;;5035621;28;21010;-66
2021/05/03 13:31:40;;;;;;;2.77;1.60;;;16.70;51.50;;;;;;5026380;28;20428;-65
2021/05/03 13:34:09;;;;;;;2.93;1.50;;;16.70;51.50;;;;;;5032607;28;20474;-62
2021/05/03 13:36:35;;;;;;;2.70;1.17;;;16.70;52.60;;;;;;5050540;28;20501;-64
2021/05/03 13:39:03;;;;;;;2.80;1.40;;;16.80;51.20;;;;;;5026753;28;20452;-61
2021/05/03 13:41:33;;;;;;;2.97;1.33;;;16.90;50.30;;;;;;5017697;28;20462;-65
2021/05/03 13:43:59;;;;;;;2.83;1.27;;;17.00;52.10;;;;;;5015416;28;20882;-63
2021/05/03 13:46:25;;;;;;;3.20;1.67;;;17.20;52.40;;;;;;5014866;28;20412;-64
2021/05/03 13:48:50;;;;;;;4.37;1.70;;;17.50;50.00;;;;;;5015289;28;20198;-64
2021/05/03 13:51:16;;;;;;;2.93;1.57;;;17.60;49.10;;;;;;5015209;28;20191;-64
2021/05/03 13:53:41;;;;;;;2.77;1.17;;;17.50;48.80;;;;;;5027452;28;20185;-65
2021/05/03 13:56:07;;;;;;;3.20;1.40;;;17.20;48.70;;;;;;5050061;28;20176;-63
2021/05/03 13:58:33;;;;;;;5.37;2.90;;;16.90;48.70;;;;;;5034567;28;20339;-61